sensor_id;sensor_type;location;lat;lon;timestamp;temperature;humidity
1786;DHT22;890;48.158;11.540;2022-07-30T00:01:12;19.10;99.40
1786;DHT22;890;48.158;11.540;2022-07-30T00:03:38;19.20;99.40
1786;DHT22;890;48.158;11.540;2022-07-30T00:06:04;19.20;99.30
1786;DHT22;890;48.158;11.540;2022-07-30T00:08:29;19.30;99.30
1786;DHT22;890;48.158;11.540;2022-07-30T00:10:55;19.30;99.30
1786;DHT22;890;48.158;11.540;2022-07-30T00:13:20;19.30;99.30
1786;DHT22;890;48.158;11.540;2022-07-30T00:15:46;19.30;99.20
1786;DHT22;890;48.158;11.540;2022-07-30T00:18:11;19.40;99.20
1786;DHT22;890;48.158;11.540;2022-07-30T00:20:37;19.30;99.10
1786;DHT22;890;48.158;11.540;2022-07-30T00:23:04;19.40;99.10
1786;DHT22;890;48.158;11.540;2022-07-30T00:25:30;19.40;98.80
1786;DHT22;890;48.158;11.540;2022-07-30T00:27:56;19.40;98.80
1786;DHT22;890;48.158;11.540;2022-07-30T00:30:22;19.40;98.80
1786;DHT22;890;48.158;11.540;2022-07-30T00:32:47;19.40;98.70
1786;DHT22;890;48.158;11.540;2022-07-30T00:35:13;19.40;98.70
1786;DHT22;890;48.158;11.540;2022-07-30T00:37:39;19.40;98.70
1786;DHT22;890;48.158;11.540;2022-07-30T00:40:07;19.40;98.80
1786;DHT22;890;48.158;11.540;2022-07-30T00:42:42;19.40;98.80
1786;DHT22;890;48.158;11.540;2022-07-30T00:45:09;19.40;98.70
1786;DHT22;890;48.158;11.540;2022-07-30T00:47:36;19.50;98.80
1786;DHT22;890;48.158;11.540;2022-07-30T00:50:02;19.50;98.90
1786;DHT22;890;48.158;11.540;2022-07-30T00:52:30;19.50;98.80
1786;DHT22;890;48.158;11.540;2022-07-30T00:54:56;19.40;98.80
1786;DHT22;890;48.158;11.540;2022-07-30T00:57:22;19.40;99.00
1786;DHT22;890;48.158;11.540;2022-07-30T00:59:47;19.50;98.80
1786;DHT22;890;48.158;11.540;2022-07-30T01:02:13;19.50;98.80
1786;DHT22;890;48.158;11.540;2022-07-30T01:04:38;19.50;98.90
1786;DHT22;890;48.158;11.540;2022-07-30T01:07:04;19.50;99.00
1786;DHT22;890;48.158;11.540;2022-07-30T01:09:30;19.60;99.20
1786;DHT22;890;48.158;11.540;2022-07-30T01:11:55;19.60;99.00
1786;DHT22;890;48.158;11.540;2022-07-30T01:14:21;19.70;98.60
1786;DHT22;890;48.158;11.540;2022-07-30T01:16:47;19.70;98.70
1786;DHT22;890;48.158;11.540;2022-07-30T01:19:18;19.70;98.80
1786;DHT22;890;48.158;11.540;2022-07-30T01:27:32;19.70;98.00
1786;DHT22;890;48.158;11.540;2022-07-30T01:29:58;19.80;98.10
1786;DHT22;890;48.158;11.540;2022-07-30T01:32:26;19.80;98.20
1786;DHT22;890;48.158;11.540;2022-07-30T01:34:54;19.80;98.00
1786;DHT22;890;48.158;11.540;2022-07-30T01:37:21;19.80;97.80
1786;DHT22;890;48.158;11.540;2022-07-30T01:39:50;19.80;97.80
1786;DHT22;890;48.158;11.540;2022-07-30T01:42:16;19.90;97.40
1786;DHT22;890;48.158;11.540;2022-07-30T01:44:44;19.90;97.20
1786;DHT22;890;48.158;11.540;2022-07-30T01:47:13;19.80;97.20
1786;DHT22;890;48.158;11.540;2022-07-30T01:49:40;19.80;96.80
1786;DHT22;890;48.158;11.540;2022-07-30T01:52:07;19.80;96.70
1786;DHT22;890;48.158;11.540;2022-07-30T01:54:34;19.90;96.90
1786;DHT22;890;48.158;11.540;2022-07-30T01:57:02;19.90;96.60
1786;DHT22;890;48.158;11.540;2022-07-30T01:59:30;19.80;96.30
1786;DHT22;890;48.158;11.540;2022-07-30T02:01:58;19.80;96.40
1786;DHT22;890;48.158;11.540;2022-07-30T02:04:23;19.70;96.20
1786;DHT22;890;48.158;11.540;2022-07-30T02:07:18;19.70;96.40
1786;DHT22;890;48.158;11.540;2022-07-30T02:10:11;19.50;96.10
1786;DHT22;890;48.158;11.540;2022-07-30T02:12:45;19.50;96.10
1786;DHT22;890;48.158;11.540;2022-07-30T02:17:47;19.30;96.40
1786;DHT22;890;48.158;11.540;2022-07-30T02:20:15;19.30;96.50
1786;DHT22;890;48.158;11.540;2022-07-30T02:22:44;19.20;96.80
1786;DHT22;890;48.158;11.540;2022-07-30T02:25:14;19.20;96.80
1786;DHT22;890;48.158;11.540;2022-07-30T02:27:42;19.20;96.90
1786;DHT22;890;48.158;11.540;2022-07-30T02:30:10;19.20;96.80
1786;DHT22;890;48.158;11.540;2022-07-30T02:32:38;19.20;96.90
1786;DHT22;890;48.158;11.540;2022-07-30T02:35:09;19.20;97.10
1786;DHT22;890;48.158;11.540;2022-07-30T02:37:37;19.20;96.90
1786;DHT22;890;48.158;11.540;2022-07-30T02:40:04;19.10;97.00
1786;DHT22;890;48.158;11.540;2022-07-30T02:42:31;19.20;97.10
1786;DHT22;890;48.158;11.540;2022-07-30T02:44:57;19.10;97.20
1786;DHT22;890;48.158;11.540;2022-07-30T02:47:25;19.10;97.40
1786;DHT22;890;48.158;11.540;2022-07-30T02:49:52;19.10;97.20
1786;DHT22;890;48.158;11.540;2022-07-30T02:52:19;19.00;97.20
1786;DHT22;890;48.158;11.540;2022-07-30T02:54:47;19.00;97.30
1786;DHT22;890;48.158;11.540;2022-07-30T02:57:14;18.90;97.30
1786;DHT22;890;48.158;11.540;2022-07-30T02:59:42;19.00;97.40
1786;DHT22;890;48.158;11.540;2022-07-30T03:02:10;19.00;97.20
1786;DHT22;890;48.158;11.540;2022-07-30T03:04:37;19.00;97.10
1786;DHT22;890;48.158;11.540;2022-07-30T03:07:05;19.00;97.20
1786;DHT22;890;48.158;11.540;2022-07-30T03:09:31;19.00;97.10
1786;DHT22;890;48.158;11.540;2022-07-30T03:11:58;19.10;97.00
1786;DHT22;890;48.158;11.540;2022-07-30T03:14:24;19.10;96.80
1786;DHT22;890;48.158;11.540;2022-07-30T03:16:55;19.10;96.70
1786;DHT22;890;48.158;11.540;2022-07-30T03:19:22;19.10;96.60
1786;DHT22;890;48.158;11.540;2022-07-30T03:21:49;19.10;96.70
1786;DHT22;890;48.158;11.540;2022-07-30T03:24:17;19.20;96.90
1786;DHT22;890;48.158;11.540;2022-07-30T03:26:44;19.20;96.70
1786;DHT22;890;48.158;11.540;2022-07-30T03:29:11;19.20;96.60
1786;DHT22;890;48.158;11.540;2022-07-30T03:31:39;19.20;96.70
1786;DHT22;890;48.158;11.540;2022-07-30T03:34:06;19.20;96.60
1786;DHT22;890;48.158;11.540;2022-07-30T03:36:33;19.10;96.50
1786;DHT22;890;48.158;11.540;2022-07-30T03:39:01;19.10;96.50
1786;DHT22;890;48.158;11.540;2022-07-30T03:41:27;19.10;96.50
1786;DHT22;890;48.158;11.540;2022-07-30T03:43:53;19.10;96.60
1786;DHT22;890;48.158;11.540;2022-07-30T03:46:19;19.10;96.60
1786;DHT22;890;48.158;11.540;2022-07-30T03:48:46;19.10;96.50
1786;DHT22;890;48.158;11.540;2022-07-30T03:51:12;19.10;96.50
1786;DHT22;890;48.158;11.540;2022-07-30T03:53:42;19.10;96.50
1786;DHT22;890;48.158;11.540;2022-07-30T03:56:09;19.10;96.50
1786;DHT22;890;48.158;11.540;2022-07-30T03:58:36;19.10;96.50
1786;DHT22;890;48.158;11.540;2022-07-30T04:01:02;19.10;96.50
1786;DHT22;890;48.158;11.540;2022-07-30T04:03:31;19.20;96.60
1786;DHT22;890;48.158;11.540;2022-07-30T04:05:57;19.20;96.60
1786;DHT22;890;48.158;11.540;2022-07-30T04:08:23;19.30;96.40
1786;DHT22;890;48.158;11.540;2022-07-30T04:10:49;19.20;96.40
1786;DHT22;890;48.158;11.540;2022-07-30T04:13:15;19.20;96.40
1786;DHT22;890;48.158;11.540;2022-07-30T04:15:53;19.30;96.60
1786;DHT22;890;48.158;11.540;2022-07-30T04:18:21;19.20;96.50
1786;DHT22;890;48.158;11.540;2022-07-30T04:20:51;19.20;96.50
1786;DHT22;890;48.158;11.540;2022-07-30T04:23:18;19.20;96.40
1786;DHT22;890;48.158;11.540;2022-07-30T04:25:45;19.20;96.30
1786;DHT22;890;48.158;11.540;2022-07-30T04:28:10;19.20;96.20
1786;DHT22;890;48.158;11.540;2022-07-30T04:30:37;19.20;96.20
1786;DHT22;890;48.158;11.540;2022-07-30T04:33:05;19.20;96.30
1786;DHT22;890;48.158;11.540;2022-07-30T04:35:32;19.30;96.30
1786;DHT22;890;48.158;11.540;2022-07-30T04:37:58;19.30;96.10
1786;DHT22;890;48.158;11.540;2022-07-30T04:40:24;19.40;96.00
1786;DHT22;890;48.158;11.540;2022-07-30T04:42:50;19.40;95.90
1786;DHT22;890;48.158;11.540;2022-07-30T04:45:16;19.40;95.70
1786;DHT22;890;48.158;11.540;2022-07-30T04:47:45;19.50;95.60
1786;DHT22;890;48.158;11.540;2022-07-30T04:50:11;19.50;95.50
1786;DHT22;890;48.158;11.540;2022-07-30T04:52:38;19.50;95.40
1786;DHT22;890;48.158;11.540;2022-07-30T04:55:06;19.50;95.30
1786;DHT22;890;48.158;11.540;2022-07-30T04:57:32;19.50;95.00
1786;DHT22;890;48.158;11.540;2022-07-30T05:00:01;19.40;95.00
1786;DHT22;890;48.158;11.540;2022-07-30T05:02:29;19.40;95.10
1786;DHT22;890;48.158;11.540;2022-07-30T05:04:56;19.40;95.00
1786;DHT22;890;48.158;11.540;2022-07-30T05:07:24;19.40;95.00
1786;DHT22;890;48.158;11.540;2022-07-30T05:09:50;19.40;95.00
1786;DHT22;890;48.158;11.540;2022-07-30T05:12:15;19.50;95.00
1786;DHT22;890;48.158;11.540;2022-07-30T05:14:41;19.50;94.90
1786;DHT22;890;48.158;11.540;2022-07-30T05:17:07;19.60;94.90
1786;DHT22;890;48.158;11.540;2022-07-30T05:19:32;19.60;94.70
1786;DHT22;890;48.158;11.540;2022-07-30T05:21:58;19.60;94.50
1786;DHT22;890;48.158;11.540;2022-07-30T05:24:24;19.60;94.40
1786;DHT22;890;48.158;11.540;2022-07-30T05:26:50;19.60;94.50
1786;DHT22;890;48.158;11.540;2022-07-30T05:29:15;19.60;94.30
1786;DHT22;890;48.158;11.540;2022-07-30T05:31:41;19.60;94.20
1786;DHT22;890;48.158;11.540;2022-07-30T05:34:07;19.60;94.20
1786;DHT22;890;48.158;11.540;2022-07-30T05:36:32;19.60;94.30
1786;DHT22;890;48.158;11.540;2022-07-30T05:38:58;19.70;94.30
1786;DHT22;890;48.158;11.540;2022-07-30T05:41:24;19.70;94.00
1786;DHT22;890;48.158;11.540;2022-07-30T05:43:52;19.70;93.90
1786;DHT22;890;48.158;11.540;2022-07-30T05:46:17;19.70;93.80
1786;DHT22;890;48.158;11.540;2022-07-30T05:48:43;19.80;93.80
1786;DHT22;890;48.158;11.540;2022-07-30T05:51:08;19.80;93.80
1786;DHT22;890;48.158;11.540;2022-07-30T05:53:34;19.90;93.50
1786;DHT22;890;48.158;11.540;2022-07-30T05:55:59;19.90;93.30
1786;DHT22;890;48.158;11.540;2022-07-30T05:58:25;19.80;93.10
1786;DHT22;890;48.158;11.540;2022-07-30T06:00:51;19.90;93.10
1786;DHT22;890;48.158;11.540;2022-07-30T06:03:16;19.80;92.90
1786;DHT22;890;48.158;11.540;2022-07-30T06:05:42;19.90;93.00
1786;DHT22;890;48.158;11.540;2022-07-30T06:08:07;19.90;92.90
1786;DHT22;890;48.158;11.540;2022-07-30T06:10:33;19.90;92.60
1786;DHT22;890;48.158;11.540;2022-07-30T06:12:59;19.90;92.60
1786;DHT22;890;48.158;11.540;2022-07-30T06:15:24;19.90;92.70
1786;DHT22;890;48.158;11.540;2022-07-30T06:17:50;20.00;92.60
1786;DHT22;890;48.158;11.540;2022-07-30T06:20:17;20.00;92.50
1786;DHT22;890;48.158;11.540;2022-07-30T06:22:43;20.10;92.40
1786;DHT22;890;48.158;11.540;2022-07-30T06:25:09;20.20;92.30
1786;DHT22;890;48.158;11.540;2022-07-30T06:27:35;20.20;92.10
1786;DHT22;890;48.158;11.540;2022-07-30T06:30:08;20.20;92.10
1786;DHT22;890;48.158;11.540;2022-07-30T06:32:34;20.20;91.70
1786;DHT22;890;48.158;11.540;2022-07-30T06:35:01;20.20;91.60
1786;DHT22;890;48.158;11.540;2022-07-30T06:37:27;20.10;91.70
1786;DHT22;890;48.158;11.540;2022-07-30T06:39:52;20.10;92.00
1786;DHT22;890;48.158;11.540;2022-07-30T06:42:19;20.10;92.10
1786;DHT22;890;48.158;11.540;2022-07-30T06:44:44;20.20;92.00
1786;DHT22;890;48.158;11.540;2022-07-30T06:47:10;20.10;92.00
1786;DHT22;890;48.158;11.540;2022-07-30T06:49:35;20.00;91.90
1786;DHT22;890;48.158;11.540;2022-07-30T06:52:01;20.00;92.00
1786;DHT22;890;48.158;11.540;2022-07-30T06:54:27;19.90;92.00
1786;DHT22;890;48.158;11.540;2022-07-30T06:56:53;19.90;92.00
1786;DHT22;890;48.158;11.540;2022-07-30T06:59:19;20.00;92.50
1786;DHT22;890;48.158;11.540;2022-07-30T07:01:45;20.20;92.10
1786;DHT22;890;48.158;11.540;2022-07-30T07:04:10;20.30;92.00
1786;DHT22;890;48.158;11.540;2022-07-30T07:06:36;20.40;91.90
1786;DHT22;890;48.158;11.540;2022-07-30T07:09:02;20.40;91.70
1786;DHT22;890;48.158;11.540;2022-07-30T07:11:27;20.60;91.40
1786;DHT22;890;48.158;11.540;2022-07-30T07:13:53;20.70;91.00
1786;DHT22;890;48.158;11.540;2022-07-30T07:16:18;20.80;90.90
1786;DHT22;890;48.158;11.540;2022-07-30T07:18:46;20.90;90.70
1786;DHT22;890;48.158;11.540;2022-07-30T07:21:15;21.10;90.50
1786;DHT22;890;48.158;11.540;2022-07-30T07:23:41;21.10;90.00
1786;DHT22;890;48.158;11.540;2022-07-30T07:26:07;21.20;89.70
1786;DHT22;890;48.158;11.540;2022-07-30T07:28:33;21.40;89.40
1786;DHT22;890;48.158;11.540;2022-07-30T07:30:58;21.50;88.40
1786;DHT22;890;48.158;11.540;2022-07-30T07:33:24;21.50;87.50
1786;DHT22;890;48.158;11.540;2022-07-30T07:35:50;21.60;87.50
1786;DHT22;890;48.158;11.540;2022-07-30T07:38:17;21.70;87.40
1786;DHT22;890;48.158;11.540;2022-07-30T07:40:42;21.80;86.20
1786;DHT22;890;48.158;11.540;2022-07-30T07:43:08;21.80;86.20
1786;DHT22;890;48.158;11.540;2022-07-30T07:45:33;21.80;86.00
1786;DHT22;890;48.158;11.540;2022-07-30T07:47:59;21.80;85.70
1786;DHT22;890;48.158;11.540;2022-07-30T07:50:25;21.90;85.30
1786;DHT22;890;48.158;11.540;2022-07-30T07:52:51;21.90;85.10
1786;DHT22;890;48.158;11.540;2022-07-30T07:55:17;21.90;84.70
1786;DHT22;890;48.158;11.540;2022-07-30T07:57:44;21.90;84.70
1786;DHT22;890;48.158;11.540;2022-07-30T08:00:12;22.10;84.50
1786;DHT22;890;48.158;11.540;2022-07-30T08:02:45;22.20;83.50
1786;DHT22;890;48.158;11.540;2022-07-30T08:05:11;22.20;82.80
1786;DHT22;890;48.158;11.540;2022-07-30T08:07:38;22.30;82.10
1786;DHT22;890;48.158;11.540;2022-07-30T08:10:04;22.30;81.60
1786;DHT22;890;48.158;11.540;2022-07-30T08:12:30;22.30;81.30
1786;DHT22;890;48.158;11.540;2022-07-30T08:14:55;22.40;80.60
1786;DHT22;890;48.158;11.540;2022-07-30T08:17:21;22.50;79.90
1786;DHT22;890;48.158;11.540;2022-07-30T08:19:47;22.60;79.50
1786;DHT22;890;48.158;11.540;2022-07-30T08:22:12;22.60;78.50
1786;DHT22;890;48.158;11.540;2022-07-30T08:24:38;22.70;78.00
1786;DHT22;890;48.158;11.540;2022-07-30T08:27:04;22.90;77.10
1786;DHT22;890;48.158;11.540;2022-07-30T08:29:29;22.90;76.10
1786;DHT22;890;48.158;11.540;2022-07-30T08:31:55;22.80;75.80
1786;DHT22;890;48.158;11.540;2022-07-30T08:34:21;22.70;76.20
1786;DHT22;890;48.158;11.540;2022-07-30T08:36:47;22.80;76.00
1786;DHT22;890;48.158;11.540;2022-07-30T08:39:12;22.80;75.80
1786;DHT22;890;48.158;11.540;2022-07-30T08:41:38;22.90;75.60
1786;DHT22;890;48.158;11.540;2022-07-30T08:44:09;22.90;75.40
1786;DHT22;890;48.158;11.540;2022-07-30T08:46:35;22.90;74.20
1786;DHT22;890;48.158;11.540;2022-07-30T08:49:01;23.00;74.50
1786;DHT22;890;48.158;11.540;2022-07-30T08:51:27;23.10;74.20
1786;DHT22;890;48.158;11.540;2022-07-30T08:53:53;23.30;73.70
1786;DHT22;890;48.158;11.540;2022-07-30T08:56:20;23.40;72.90
1786;DHT22;890;48.158;11.540;2022-07-30T08:58:46;23.40;72.10
1786;DHT22;890;48.158;11.540;2022-07-30T09:01:12;23.40;71.50
1786;DHT22;890;48.158;11.540;2022-07-30T09:03:38;23.30;71.30
1786;DHT22;890;48.158;11.540;2022-07-30T09:06:04;23.20;71.10
1786;DHT22;890;48.158;11.540;2022-07-30T09:08:30;23.40;71.00
1786;DHT22;890;48.158;11.540;2022-07-30T09:10:56;23.70;70.60
1786;DHT22;890;48.158;11.540;2022-07-30T09:13:42;23.70;70.40
1786;DHT22;890;48.158;11.540;2022-07-30T09:16:38;23.70;69.50
1786;DHT22;890;48.158;11.540;2022-07-30T09:21:37;23.70;68.60
1786;DHT22;890;48.158;11.540;2022-07-30T09:24:05;24.00;68.50
1786;DHT22;890;48.158;11.540;2022-07-30T09:26:57;24.00;66.70
1786;DHT22;890;48.158;11.540;2022-07-30T09:29:27;24.20;66.30
1786;DHT22;890;48.158;11.540;2022-07-30T09:32:05;24.40;65.30
1786;DHT22;890;48.158;11.540;2022-07-30T09:34:36;24.40;65.20
1786;DHT22;890;48.158;11.540;2022-07-30T09:37:06;24.40;64.00
1786;DHT22;890;48.158;11.540;2022-07-30T09:39:41;24.50;63.80
1786;DHT22;890;48.158;11.540;2022-07-30T09:42:26;24.40;62.30
1786;DHT22;890;48.158;11.540;2022-07-30T09:45:15;24.10;62.20
1786;DHT22;890;48.158;11.540;2022-07-30T09:47:42;24.20;62.30
1786;DHT22;890;48.158;11.540;2022-07-30T09:50:16;24.40;63.50
1786;DHT22;890;48.158;11.540;2022-07-30T09:52:45;24.90;68.50
1786;DHT22;890;48.158;11.540;2022-07-30T09:55:12;25.80;70.30
1786;DHT22;890;48.158;11.540;2022-07-30T09:57:54;26.60;67.80
1786;DHT22;890;48.158;11.540;2022-07-30T10:00:23;26.90;64.00
1786;DHT22;890;48.158;11.540;2022-07-30T10:02:50;27.50;61.10
1786;DHT22;890;48.158;11.540;2022-07-30T10:05:17;28.30;61.70
1786;DHT22;890;48.158;11.540;2022-07-30T10:07:49;28.80;58.30
1786;DHT22;890;48.158;11.540;2022-07-30T10:10:17;28.50;55.00
1786;DHT22;890;48.158;11.540;2022-07-30T10:12:45;28.60;56.40
1786;DHT22;890;48.158;11.540;2022-07-30T10:15:11;28.90;56.60
1786;DHT22;890;48.158;11.540;2022-07-30T10:17:37;29.80;54.20
1786;DHT22;890;48.158;11.540;2022-07-30T10:20:06;30.00;49.30
1786;DHT22;890;48.158;11.540;2022-07-30T10:22:37;29.50;48.20
1786;DHT22;890;48.158;11.540;2022-07-30T10:25:03;28.90;48.50
1786;DHT22;890;48.158;11.540;2022-07-30T10:27:29;28.90;50.60
1786;DHT22;890;48.158;11.540;2022-07-30T10:29:57;29.20;50.40
1786;DHT22;890;48.158;11.540;2022-07-30T10:32:25;29.50;49.20
1786;DHT22;890;48.158;11.540;2022-07-30T10:34:51;29.80;48.30
1786;DHT22;890;48.158;11.540;2022-07-30T10:37:17;30.20;48.70
1786;DHT22;890;48.158;11.540;2022-07-30T10:40:39;30.10;46.10
1786;DHT22;890;48.158;11.540;2022-07-30T10:45:46;29.40;46.30
1786;DHT22;890;48.158;11.540;2022-07-30T10:48:17;29.90;44.40
1786;DHT22;890;48.158;11.540;2022-07-30T10:50:52;29.80;45.30
1786;DHT22;890;48.158;11.540;2022-07-30T10:53:40;29.40;45.10
1786;DHT22;890;48.158;11.540;2022-07-30T10:56:15;29.00;45.40
1786;DHT22;890;48.158;11.540;2022-07-30T10:59:05;29.00;44.80
1786;DHT22;890;48.158;11.540;2022-07-30T11:04:28;28.50;44.10
1786;DHT22;890;48.158;11.540;2022-07-30T11:09:58;29.10;43.40
1786;DHT22;890;48.158;11.540;2022-07-30T11:15:14;29.60;43.70
1786;DHT22;890;48.158;11.540;2022-07-30T11:20:31;30.50;42.40
1786;DHT22;890;48.158;11.540;2022-07-30T11:25:45;31.00;41.40
1786;DHT22;890;48.158;11.540;2022-07-30T11:28:44;31.10;40.80
1786;DHT22;890;48.158;11.540;2022-07-30T11:31:30;29.80;40.50
1786;DHT22;890;48.158;11.540;2022-07-30T11:42:27;29.90;42.50
1786;DHT22;890;48.158;11.540;2022-07-30T11:47:53;30.30;41.70
1786;DHT22;890;48.158;11.540;2022-07-30T11:50:20;30.00;41.80
1786;DHT22;890;48.158;11.540;2022-07-30T11:52:55;30.20;42.00
1786;DHT22;890;48.158;11.540;2022-07-30T11:55:33;29.60;41.00
1786;DHT22;890;48.158;11.540;2022-07-30T11:58:00;28.80;41.40
1786;DHT22;890;48.158;11.540;2022-07-30T12:00:41;28.20;42.20
1786;DHT22;890;48.158;11.540;2022-07-30T12:03:16;28.00;43.80
1786;DHT22;890;48.158;11.540;2022-07-30T12:05:42;28.80;44.20
1786;DHT22;890;48.158;11.540;2022-07-30T12:08:09;29.40;43.40
1786;DHT22;890;48.158;11.540;2022-07-30T12:10:35;29.40;42.20
1786;DHT22;890;48.158;11.540;2022-07-30T12:13:14;29.90;41.80
1786;DHT22;890;48.158;11.540;2022-07-30T12:15:43;30.00;40.50
1786;DHT22;890;48.158;11.540;2022-07-30T12:18:09;30.30;40.40
1786;DHT22;890;48.158;11.540;2022-07-30T12:20:39;30.40;40.20
1786;DHT22;890;48.158;11.540;2022-07-30T12:23:12;30.80;39.10
1786;DHT22;890;48.158;11.540;2022-07-30T12:25:42;30.90;38.00
1786;DHT22;890;48.158;11.540;2022-07-30T12:28:09;31.00;38.00
1786;DHT22;890;48.158;11.540;2022-07-30T12:30:38;31.10;37.60
1786;DHT22;890;48.158;11.540;2022-07-30T12:33:05;31.10;37.70
1786;DHT22;890;48.158;11.540;2022-07-30T12:35:50;31.00;37.40
1786;DHT22;890;48.158;11.540;2022-07-30T12:38:18;30.50;37.00
1786;DHT22;890;48.158;11.540;2022-07-30T12:46:15;29.40;37.60
1786;DHT22;890;48.158;11.540;2022-07-30T12:48:59;29.10;37.80
1786;DHT22;890;48.158;11.540;2022-07-30T12:51:36;28.50;37.90
1786;DHT22;890;48.158;11.540;2022-07-30T12:54:17;28.00;38.90
1786;DHT22;890;48.158;11.540;2022-07-30T12:57:04;27.60;38.80
1786;DHT22;890;48.158;11.540;2022-07-30T12:59:30;27.30;39.20
1786;DHT22;890;48.158;11.540;2022-07-30T13:01:57;27.20;39.00
1786;DHT22;890;48.158;11.540;2022-07-30T13:04:24;27.00;39.60
1786;DHT22;890;48.158;11.540;2022-07-30T13:07:08;26.80;40.00
1786;DHT22;890;48.158;11.540;2022-07-30T13:09:35;26.70;40.90
1786;DHT22;890;48.158;11.540;2022-07-30T13:12:01;26.70;41.30
1786;DHT22;890;48.158;11.540;2022-07-30T13:14:27;26.70;41.10
1786;DHT22;890;48.158;11.540;2022-07-30T13:16:53;26.60;40.40
1786;DHT22;890;48.158;11.540;2022-07-30T13:19:24;26.50;40.50
1786;DHT22;890;48.158;11.540;2022-07-30T13:21:50;26.50;40.90
1786;DHT22;890;48.158;11.540;2022-07-30T13:24:16;26.50;41.30
1786;DHT22;890;48.158;11.540;2022-07-30T13:26:41;26.50;41.20
1786;DHT22;890;48.158;11.540;2022-07-30T13:29:07;26.60;40.80
1786;DHT22;890;48.158;11.540;2022-07-30T13:31:34;26.50;40.60
1786;DHT22;890;48.158;11.540;2022-07-30T13:34:00;26.30;41.00
1786;DHT22;890;48.158;11.540;2022-07-30T13:36:26;26.30;41.40
1786;DHT22;890;48.158;11.540;2022-07-30T13:38:52;26.20;41.60
1786;DHT22;890;48.158;11.540;2022-07-30T13:41:18;26.40;41.80
1786;DHT22;890;48.158;11.540;2022-07-30T13:43:44;26.50;41.50
1786;DHT22;890;48.158;11.540;2022-07-30T13:46:10;26.50;41.40
1786;DHT22;890;48.158;11.540;2022-07-30T13:48:36;26.50;41.40
1786;DHT22;890;48.158;11.540;2022-07-30T13:51:02;26.50;41.30
1786;DHT22;890;48.158;11.540;2022-07-30T13:53:28;26.60;41.30
1786;DHT22;890;48.158;11.540;2022-07-30T13:55:54;26.50;41.10
1786;DHT22;890;48.158;11.540;2022-07-30T13:58:20;26.50;41.20
1786;DHT22;890;48.158;11.540;2022-07-30T14:00:46;26.60;41.20
1786;DHT22;890;48.158;11.540;2022-07-30T14:03:13;26.50;41.30
1786;DHT22;890;48.158;11.540;2022-07-30T14:05:39;26.50;41.20
1786;DHT22;890;48.158;11.540;2022-07-30T14:08:06;26.50;41.50
1786;DHT22;890;48.158;11.540;2022-07-30T14:10:33;26.40;41.50
1786;DHT22;890;48.158;11.540;2022-07-30T14:12:59;26.40;41.70
1786;DHT22;890;48.158;11.540;2022-07-30T14:15:26;26.40;41.80
1786;DHT22;890;48.158;11.540;2022-07-30T14:17:53;26.60;41.50
1786;DHT22;890;48.158;11.540;2022-07-30T14:20:19;26.60;41.50
1786;DHT22;890;48.158;11.540;2022-07-30T14:22:45;26.70;41.70
1786;DHT22;890;48.158;11.540;2022-07-30T14:25:11;26.90;41.80
1786;DHT22;890;48.158;11.540;2022-07-30T14:27:37;26.90;41.60
1786;DHT22;890;48.158;11.540;2022-07-30T14:30:04;26.90;41.60
1786;DHT22;890;48.158;11.540;2022-07-30T14:32:30;26.90;41.50
1786;DHT22;890;48.158;11.540;2022-07-30T14:34:56;26.80;41.50
1786;DHT22;890;48.158;11.540;2022-07-30T14:37:22;26.80;41.70
1786;DHT22;890;48.158;11.540;2022-07-30T14:39:48;26.80;41.80
1786;DHT22;890;48.158;11.540;2022-07-30T14:42:13;26.80;41.30
1786;DHT22;890;48.158;11.540;2022-07-30T14:44:39;26.70;41.20
1786;DHT22;890;48.158;11.540;2022-07-30T14:47:04;26.70;41.40
1786;DHT22;890;48.158;11.540;2022-07-30T14:49:30;26.70;41.40
1786;DHT22;890;48.158;11.540;2022-07-30T14:51:56;26.80;40.90
1786;DHT22;890;48.158;11.540;2022-07-30T14:54:21;26.70;40.90
1786;DHT22;890;48.158;11.540;2022-07-30T14:56:48;26.70;40.80
1786;DHT22;890;48.158;11.540;2022-07-30T14:59:13;26.70;41.00
1786;DHT22;890;48.158;11.540;2022-07-30T15:01:39;26.60;41.10
1786;DHT22;890;48.158;11.540;2022-07-30T15:04:06;26.70;41.20
1786;DHT22;890;48.158;11.540;2022-07-30T15:06:34;26.70;41.10
1786;DHT22;890;48.158;11.540;2022-07-30T15:09:00;26.70;41.10
1786;DHT22;890;48.158;11.540;2022-07-30T15:11:26;26.70;41.10
1786;DHT22;890;48.158;11.540;2022-07-30T15:13:51;26.80;41.00
1786;DHT22;890;48.158;11.540;2022-07-30T15:16:17;26.80;40.80
1786;DHT22;890;48.158;11.540;2022-07-30T15:18:43;26.90;41.00
1786;DHT22;890;48.158;11.540;2022-07-30T15:21:09;26.90;41.00
1786;DHT22;890;48.158;11.540;2022-07-30T15:23:36;27.00;40.70
1786;DHT22;890;48.158;11.540;2022-07-30T15:26:02;27.10;40.40
1786;DHT22;890;48.158;11.540;2022-07-30T15:28:28;27.10;40.50
1786;DHT22;890;48.158;11.540;2022-07-30T15:30:53;27.20;40.70
1786;DHT22;890;48.158;11.540;2022-07-30T15:33:20;27.20;40.40
1786;DHT22;890;48.158;11.540;2022-07-30T15:35:45;27.20;40.50
1786;DHT22;890;48.158;11.540;2022-07-30T15:38:11;27.20;40.60
1786;DHT22;890;48.158;11.540;2022-07-30T15:40:37;27.30;40.60
1786;DHT22;890;48.158;11.540;2022-07-30T15:43:03;27.30;40.70
1786;DHT22;890;48.158;11.540;2022-07-30T15:45:28;27.50;40.70
1786;DHT22;890;48.158;11.540;2022-07-30T15:47:54;27.60;40.30
1786;DHT22;890;48.158;11.540;2022-07-30T15:50:19;27.50;40.10
1786;DHT22;890;48.158;11.540;2022-07-30T15:52:45;27.40;40.00
1786;DHT22;890;48.158;11.540;2022-07-30T15:55:11;27.30;40.20
1786;DHT22;890;48.158;11.540;2022-07-30T15:57:36;27.30;40.40
1786;DHT22;890;48.158;11.540;2022-07-30T16:00:04;27.30;40.30
1786;DHT22;890;48.158;11.540;2022-07-30T16:02:31;27.20;40.00
1786;DHT22;890;48.158;11.540;2022-07-30T16:04:57;27.20;40.10
1786;DHT22;890;48.158;11.540;2022-07-30T16:07:22;27.20;39.90
1786;DHT22;890;48.158;11.540;2022-07-30T16:09:48;27.10;39.90
1786;DHT22;890;48.158;11.540;2022-07-30T16:12:14;27.10;40.00
1786;DHT22;890;48.158;11.540;2022-07-30T16:14:39;27.20;40.30
1786;DHT22;890;48.158;11.540;2022-07-30T16:17:05;27.30;40.00
1786;DHT22;890;48.158;11.540;2022-07-30T16:19:32;27.40;39.50
1786;DHT22;890;48.158;11.540;2022-07-30T16:21:57;27.40;39.40
1786;DHT22;890;48.158;11.540;2022-07-30T16:24:23;27.40;39.60
1786;DHT22;890;48.158;11.540;2022-07-30T16:26:48;27.50;38.90
1786;DHT22;890;48.158;11.540;2022-07-30T16:29:15;27.60;38.70
1786;DHT22;890;48.158;11.540;2022-07-30T16:31:40;27.60;38.50
1786;DHT22;890;48.158;11.540;2022-07-30T16:34:06;27.60;38.50
1786;DHT22;890;48.158;11.540;2022-07-30T16:36:31;27.70;38.60
1786;DHT22;890;48.158;11.540;2022-07-30T16:38:57;27.70;38.50
1786;DHT22;890;48.158;11.540;2022-07-30T16:41:22;27.70;38.60
1786;DHT22;890;48.158;11.540;2022-07-30T16:43:48;27.80;38.40
1786;DHT22;890;48.158;11.540;2022-07-30T16:46:14;27.70;38.40
1786;DHT22;890;48.158;11.540;2022-07-30T16:48:39;27.50;38.70
1786;DHT22;890;48.158;11.540;2022-07-30T16:51:06;27.30;39.00